createdAt,value
2023-03-24T00:01:54.422Z,12.60
2023-03-24T00:04:21.846Z,12.60
2023-03-24T00:06:49.388Z,12.60
2023-03-24T00:09:16.948Z,12.60
2023-03-24T00:11:44.648Z,12.60
2023-03-24T00:14:14.900Z,12.60
2023-03-24T00:16:45.470Z,12.60
2023-03-24T00:19:15.166Z,12.60
2023-03-24T00:21:43.152Z,12.60
2023-03-24T00:24:12.845Z,12.50
2023-03-24T00:26:41.087Z,12.50
2023-03-24T00:29:11.814Z,12.50
2023-03-24T00:31:40.367Z,12.50
2023-03-24T00:34:10.463Z,12.50
2023-03-24T00:36:37.681Z,12.50
2023-03-24T00:39:06.447Z,12.50
2023-03-24T00:41:33.958Z,12.50
2023-03-24T00:44:06.039Z,12.50
2023-03-24T00:46:34.092Z,12.50
2023-03-24T00:49:07.329Z,12.60
2023-03-24T00:51:42.229Z,12.60
2023-03-24T00:54:14.172Z,12.60
2023-03-24T00:56:41.630Z,12.60
2023-03-24T00:59:10.495Z,12.60
2023-03-24T01:01:39.376Z,12.50
2023-03-24T01:04:07.071Z,12.50
2023-03-24T01:06:37.111Z,12.50
2023-03-24T01:09:05.788Z,12.50
2023-03-24T01:11:38.563Z,12.50
2023-03-24T01:14:06.003Z,12.40
2023-03-24T01:16:33.043Z,12.40
2023-03-24T01:19:00.630Z,12.40
2023-03-24T01:21:27.621Z,12.40
2023-03-24T01:23:54.630Z,12.40
2023-03-24T01:26:21.624Z,12.40
2023-03-24T01:28:48.500Z,12.40
2023-03-24T01:31:15.692Z,12.40
2023-03-24T01:33:42.530Z,12.30
2023-03-24T01:36:09.851Z,12.30
2023-03-24T01:38:37.303Z,12.30
2023-03-24T01:41:05.802Z,12.30
2023-03-24T01:43:34.197Z,12.30
2023-03-24T01:46:21.845Z,12.30
2023-03-24T01:49:02.716Z,12.20
2023-03-24T01:51:38.377Z,12.20
2023-03-24T01:54:08.204Z,12.20
2023-03-24T01:56:38.716Z,12.20
2023-03-24T01:59:13.378Z,12.20
2023-03-24T02:01:40.734Z,12.20
2023-03-24T02:04:08.375Z,12.20
2023-03-24T02:06:41.409Z,12.30
2023-03-24T02:09:09.749Z,12.30
2023-03-24T02:11:38.129Z,12.40
2023-03-24T02:14:06.368Z,12.40
2023-03-24T02:16:49.438Z,12.40
2023-03-24T02:19:28.440Z,12.40
2023-03-24T02:22:21.557Z,12.40
2023-03-24T02:24:55.194Z,12.50
2023-03-24T02:27:33.785Z,12.50
2023-03-24T02:30:29.685Z,12.50
2023-03-24T02:33:36.126Z,12.60
2023-03-24T02:36:24.309Z,12.60
2023-03-24T02:39:28.670Z,12.60
2023-03-24T02:42:10.710Z,12.60
2023-03-24T02:44:51.256Z,12.60
2023-03-24T02:47:33.063Z,12.50
2023-03-24T02:50:02.948Z,12.50
2023-03-24T02:52:34.289Z,12.50
2023-03-24T02:55:10.058Z,12.40
2023-03-24T02:57:57.925Z,12.40
2023-03-24T03:00:28.398Z,12.40
2023-03-24T03:03:22.082Z,12.30
2023-03-24T03:06:01.164Z,12.30
2023-03-24T03:08:32.540Z,12.40
2023-03-24T03:11:01.279Z,12.40
2023-03-24T03:13:36.475Z,12.40
2023-03-24T03:16:12.810Z,12.40
2023-03-24T03:18:50.246Z,12.40
2023-03-24T03:21:22.599Z,12.50
2023-03-24T03:23:58.898Z,12.40
2023-03-24T03:26:32.702Z,12.40
2023-03-24T03:29:05.633Z,12.40
2023-03-24T03:31:41.960Z,12.40
2023-03-24T03:34:16.964Z,12.30
2023-03-24T03:37:00.899Z,12.30
2023-03-24T03:39:35.292Z,12.30
2023-03-24T03:42:03.344Z,12.30
2023-03-24T03:44:31.527Z,12.30
2023-03-24T03:46:58.977Z,12.20
2023-03-24T03:49:26.177Z,12.20
2023-03-24T03:51:54.250Z,12.20
2023-03-24T03:54:22.168Z,12.20
2023-03-24T03:56:50.568Z,12.20
2023-03-24T03:59:24.885Z,12.20
2023-03-24T04:01:52.101Z,12.20
2023-03-24T04:04:38.048Z,12.10
2023-03-24T04:07:28.694Z,12.10
2023-03-24T04:10:19.670Z,12.10
2023-03-24T04:12:49.662Z,12.10
2023-03-24T04:15:33.136Z,12.10
2023-03-24T04:18:15.506Z,12.10
2023-03-24T04:20:56.116Z,12.00
2023-03-24T04:23:31.895Z,12.00
2023-03-24T04:26:34.564Z,12.00
2023-03-24T04:29:17.933Z,12.00
2023-03-24T04:31:53.552Z,12.00
2023-03-24T04:34:46.338Z,12.00
2023-03-24T04:37:20.515Z,12.00
2023-03-24T04:39:49.797Z,12.00
2023-03-24T04:42:36.944Z,12.00
2023-03-24T04:45:05.853Z,12.00
2023-03-24T04:47:38.638Z,12.00
2023-03-24T04:50:11.441Z,12.00
2023-03-24T04:52:42.898Z,11.90
2023-03-24T04:55:39.984Z,11.90
2023-03-24T04:58:06.947Z,11.90
2023-03-24T05:00:33.801Z,11.90
2023-03-24T05:03:00.770Z,12.00
2023-03-24T05:05:28.529Z,12.00
2023-03-24T05:07:56.983Z,12.10
2023-03-24T05:10:24.484Z,12.10
2023-03-24T05:12:51.488Z,12.20
2023-03-24T05:15:18.546Z,12.20
2023-03-24T05:17:45.526Z,12.30
2023-03-24T05:20:12.872Z,12.30
2023-03-24T05:22:39.749Z,12.30
2023-03-24T05:25:07.133Z,12.30
2023-03-24T05:27:34.076Z,12.40
2023-03-24T05:30:01.182Z,12.40
2023-03-24T05:32:28.111Z,12.30
2023-03-24T05:34:55.026Z,12.30
2023-03-24T05:37:22.122Z,12.20
2023-03-24T05:39:49.348Z,12.20
2023-03-24T05:42:17.426Z,12.20
2023-03-24T05:44:45.787Z,12.10
2023-03-24T05:47:16.111Z,12.10
2023-03-24T05:49:43.430Z,12.20
2023-03-24T05:52:11.097Z,12.30
2023-03-24T05:54:39.542Z,12.30
2023-03-24T05:57:10.290Z,12.30
2023-03-24T05:59:38.138Z,12.20
2023-03-24T06:02:05.540Z,12.20
2023-03-24T06:04:32.513Z,12.20
2023-03-24T06:07:00.267Z,12.30
2023-03-24T06:09:29.066Z,12.30
2023-03-24T06:11:56.718Z,12.30
2023-03-24T06:14:23.747Z,12.30
2023-03-24T06:16:50.629Z,12.30
2023-03-24T06:19:19.054Z,12.30
2023-03-24T06:21:50.559Z,12.30
2023-03-24T06:24:18.136Z,12.30
2023-03-24T06:26:45.464Z,12.30
2023-03-24T06:29:12.956Z,12.30
2023-03-24T06:31:39.846Z,12.40
2023-03-24T06:34:06.977Z,12.40
2023-03-24T06:36:36.489Z,12.50
2023-03-24T06:39:06.142Z,12.50
2023-03-24T06:41:33.034Z,12.60
2023-03-24T06:44:00.010Z,12.60
2023-03-24T06:46:26.827Z,12.60
2023-03-24T06:48:53.793Z,12.60
2023-03-24T06:51:20.951Z,12.60
2023-03-24T06:53:47.863Z,12.60
2023-03-24T06:56:17.250Z,12.60
2023-03-24T06:58:45.018Z,12.60
2023-03-24T07:01:12.318Z,12.60
2023-03-24T07:03:41.956Z,12.70
2023-03-24T07:06:10.597Z,12.70
2023-03-24T07:08:38.923Z,12.70
2023-03-24T07:11:08.796Z,12.70
2023-03-24T07:13:35.783Z,12.70
2023-03-24T07:16:03.118Z,12.70
2023-03-24T07:18:29.983Z,12.70
2023-03-24T07:20:56.809Z,12.70
2023-03-24T07:23:25.462Z,12.70
2023-03-24T07:25:52.417Z,12.60
2023-03-24T07:28:19.687Z,12.60
2023-03-24T07:30:46.649Z,12.50
2023-03-24T07:33:13.604Z,12.50
2023-03-24T07:35:41.903Z,12.50
2023-03-24T07:38:10.052Z,12.60
2023-03-24T07:40:37.016Z,12.60
2023-03-24T07:43:07.770Z,12.60
2023-03-24T07:45:35.009Z,12.60
2023-03-24T07:48:02.232Z,12.60
2023-03-24T07:50:30.812Z,12.70
2023-03-24T07:53:00.005Z,12.70
2023-03-24T07:55:27.513Z,12.70
2023-03-24T07:57:54.530Z,12.70
2023-03-24T08:00:21.879Z,12.80
2023-03-24T08:02:54.060Z,12.90
2023-03-24T08:05:22.800Z,13.00
2023-03-24T08:07:55.708Z,13.00
2023-03-24T08:10:28.228Z,13.10
2023-03-24T08:12:56.435Z,13.20
2023-03-24T08:15:23.786Z,13.30
2023-03-24T08:17:51.742Z,13.40
2023-03-24T08:20:21.536Z,13.40
2023-03-24T08:22:49.816Z,13.50
2023-03-24T08:25:20.767Z,13.50
2023-03-24T08:27:48.225Z,13.60
2023-03-24T08:30:18.441Z,13.70
2023-03-24T08:32:50.494Z,13.70
2023-03-24T08:35:21.337Z,13.80
2023-03-24T08:37:48.190Z,13.80
2023-03-24T08:40:20.412Z,13.80
2023-03-24T08:42:52.985Z,13.70
2023-03-24T08:45:21.835Z,13.80
2023-03-24T08:47:50.639Z,13.70
2023-03-24T08:50:19.477Z,13.70
2023-03-24T08:52:49.320Z,13.70
2023-03-24T08:55:18.205Z,13.70
2023-03-24T08:57:45.509Z,13.60
2023-03-24T09:00:15.986Z,13.60
2023-03-24T09:02:45.531Z,13.50
2023-03-24T09:05:13.535Z,13.50
2023-03-24T09:07:40.559Z,13.50
2023-03-24T09:10:09.087Z,13.60
2023-03-24T09:12:39.351Z,13.60
2023-03-24T09:15:08.356Z,13.70
2023-03-24T09:17:35.993Z,13.80
2023-03-24T09:20:08.411Z,13.90
2023-03-24T09:22:37.819Z,13.90
2023-03-24T09:25:05.826Z,14.00
2023-03-24T09:27:33.064Z,14.00
2023-03-24T09:30:00.180Z,14.00
2023-03-24T09:32:27.158Z,14.00
2023-03-24T09:34:54.084Z,14.10
2023-03-24T09:37:21.102Z,14.10
2023-03-24T09:39:47.832Z,14.00
2023-03-24T09:42:23.972Z,13.90
2023-03-24T09:45:03.236Z,13.80
2023-03-24T09:47:43.651Z,13.70
2023-03-24T09:50:24.965Z,13.60
2023-03-24T09:53:05.591Z,13.50
2023-03-24T09:55:33.044Z,13.40
2023-03-24T09:58:06.217Z,13.40
2023-03-24T10:00:34.560Z,13.40
2023-03-24T10:03:21.144Z,13.30
2023-03-24T10:06:00.423Z,13.30
2023-03-24T10:08:44.708Z,13.20
2023-03-24T10:11:33.871Z,13.20
2023-03-24T10:14:12.816Z,13.20
2023-03-24T10:17:17.473Z,13.20
2023-03-24T10:19:55.502Z,13.30
2023-03-24T10:22:56.188Z,13.40
2023-03-24T10:25:48.763Z,13.40
2023-03-24T10:28:26.116Z,13.40
2023-03-24T10:30:56.325Z,13.40
2023-03-24T10:33:23.176Z,13.40
2023-03-24T10:36:07.108Z,13.40
2023-03-24T10:38:34.728Z,13.40
2023-03-24T10:41:02.797Z,13.40
2023-03-24T10:43:30.857Z,13.30
2023-03-24T10:45:59.741Z,13.30
2023-03-24T10:49:10.202Z,13.40
2023-03-24T10:51:37.820Z,13.40
2023-03-24T10:54:12.257Z,13.40
2023-03-24T10:56:41.788Z,13.50
2023-03-24T10:59:23.170Z,13.50
2023-03-24T11:01:52.424Z,13.40
2023-03-24T11:04:20.959Z,13.50
2023-03-24T11:07:02.457Z,13.50
2023-03-24T11:09:30.195Z,13.50
2023-03-24T11:12:02.609Z,13.40
2023-03-24T11:14:29.473Z,13.50
2023-03-24T11:17:15.694Z,13.40
2023-03-24T11:19:57.109Z,13.40
2023-03-24T11:22:26.139Z,13.30
2023-03-24T11:24:56.472Z,13.20
2023-03-24T11:27:23.738Z,13.10
2023-03-24T11:29:55.140Z,13.00
2023-03-24T11:32:28.029Z,13.00
2023-03-24T11:35:07.789Z,13.00
2023-03-24T11:37:36.759Z,13.00
2023-03-24T11:40:12.775Z,13.10
2023-03-24T11:42:58.977Z,13.40
2023-03-24T11:45:39.993Z,13.70
2023-03-24T11:48:32.818Z,14.00
2023-03-24T11:51:01.270Z,14.50
2023-03-24T11:53:37.250Z,14.60
2023-03-24T11:56:18.829Z,14.80
2023-03-24T11:58:56.098Z,15.00
2023-03-24T12:01:22.844Z,15.30
2023-03-24T12:04:07.029Z,15.50
2023-03-24T12:06:58.386Z,15.70
2023-03-24T12:09:55.388Z,16.00
2023-03-24T12:12:24.895Z,16.30
2023-03-24T12:15:24.616Z,16.50
2023-03-24T12:18:15.873Z,16.80
2023-03-24T12:20:54.738Z,16.90
2023-03-24T12:23:59.816Z,17.20
2023-03-24T12:26:31.933Z,17.10
2023-03-24T12:29:24.824Z,16.90
2023-03-24T12:32:03.304Z,16.80
2023-03-24T12:34:54.394Z,16.70
2023-03-24T12:37:42.664Z,16.50
2023-03-24T12:40:21.393Z,16.40
2023-03-24T12:42:54.720Z,16.30
2023-03-24T12:45:34.788Z,16.20
2023-03-24T12:48:17.994Z,16.10
2023-03-24T12:50:47.657Z,16.00
2023-03-24T12:53:36.571Z,16.00
2023-03-24T12:56:15.537Z,15.90
2023-03-24T12:58:46.563Z,15.90
2023-03-24T13:01:35.599Z,15.90
2023-03-24T13:04:21.271Z,15.70
2023-03-24T13:06:59.918Z,15.80
2023-03-24T13:10:18.322Z,15.60
2023-03-24T13:13:12.206Z,15.40
2023-03-24T13:15:58.713Z,15.20
2023-03-24T13:18:34.280Z,14.90
2023-03-24T13:21:17.045Z,14.60
2023-03-24T13:23:55.099Z,14.20
2023-03-24T13:26:44.107Z,13.90
2023-03-24T13:29:41.875Z,13.80
2023-03-24T13:32:25.729Z,13.90
2023-03-24T13:35:05.683Z,14.00
2023-03-24T13:37:39.576Z,14.10
2023-03-24T13:40:11.902Z,14.10
2023-03-24T13:42:52.995Z,14.20
2023-03-24T13:45:39.964Z,14.20
2023-03-24T13:48:09.617Z,14.10
2023-03-24T13:50:55.899Z,14.10
2023-03-24T13:53:37.403Z,14.10
2023-03-24T13:56:06.628Z,14.10
2023-03-24T13:59:04.782Z,14.10
2023-03-24T14:01:42.335Z,14.20
2023-03-24T14:04:23.409Z,14.20
2023-03-24T14:06:51.606Z,14.10
2023-03-24T14:09:24.469Z,14.00
2023-03-24T14:12:07.438Z,14.00
2023-03-24T14:14:56.118Z,13.90
2023-03-24T14:17:23.026Z,13.80
2023-03-24T14:19:58.716Z,13.80
2023-03-24T14:22:36.276Z,13.80
2023-03-24T14:25:25.007Z,13.80
2023-03-24T14:27:55.538Z,13.80
2023-03-24T14:30:26.176Z,13.80
2023-03-24T14:32:56.598Z,13.70
2023-03-24T14:35:46.699Z,13.70
2023-03-24T14:38:16.505Z,13.70
2023-03-24T14:40:49.686Z,13.70
2023-03-24T14:43:16.763Z,13.60
2023-03-24T14:46:09.225Z,13.60
2023-03-24T14:49:02.182Z,13.60
2023-03-24T14:51:39.131Z,13.60
2023-03-24T14:54:18.474Z,13.60
2023-03-24T14:56:51.843Z,13.60
2023-03-24T14:59:41.262Z,13.60
2023-03-24T15:02:17.302Z,13.60
2023-03-24T15:05:23.418Z,13.60
2023-03-24T15:08:18.960Z,13.60
2023-03-24T15:10:52.596Z,13.60
2023-03-24T15:13:35.983Z,13.70
2023-03-24T15:16:10.454Z,13.80
2023-03-24T15:18:59.786Z,13.80
2023-03-24T15:21:45.605Z,13.80
2023-03-24T15:24:21.475Z,13.70
2023-03-24T15:26:56.286Z,13.60
2023-03-24T15:29:23.953Z,13.50
2023-03-24T15:31:51.270Z,13.40
2023-03-24T15:34:28.313Z,13.40
2023-03-24T15:36:57.767Z,13.30
2023-03-24T15:39:36.810Z,13.30
2023-03-24T15:42:15.984Z,13.30
2023-03-24T15:44:43.137Z,13.20
2023-03-24T15:47:25.994Z,13.20
2023-03-24T15:49:56.932Z,13.20
2023-03-24T15:52:36.248Z,13.10
2023-03-24T15:55:17.219Z,13.10
2023-03-24T15:57:47.006Z,13.00
2023-03-24T16:00:24.331Z,13.00
2023-03-24T16:02:54.216Z,12.80
2023-03-24T16:05:26.023Z,12.70
2023-03-24T16:08:01.154Z,12.60
2023-03-24T16:10:39.297Z,12.50
2023-03-24T16:13:21.532Z,12.30
2023-03-24T16:16:17.047Z,12.20
2023-03-24T16:18:48.803Z,12.00
2023-03-24T16:21:18.100Z,11.90
2023-03-24T16:23:45.514Z,11.70
2023-03-24T16:26:20.922Z,11.60
2023-03-24T16:28:48.299Z,11.50
2023-03-24T16:31:21.917Z,11.40
2023-03-24T16:33:49.213Z,11.30
2023-03-24T16:36:17.282Z,11.20
2023-03-24T16:38:47.122Z,11.10
2023-03-24T16:41:15.423Z,11.10
2023-03-24T16:43:42.941Z,11.00
2023-03-24T16:46:35.901Z,10.90
2023-03-24T16:49:05.436Z,10.90
2023-03-24T16:51:32.454Z,10.90
2023-03-24T16:53:59.484Z,10.90
2023-03-24T16:56:26.622Z,10.80
2023-03-24T16:58:54.592Z,10.90
2023-03-24T17:01:29.729Z,10.80
2023-03-24T17:03:58.133Z,10.80
2023-03-24T17:06:26.752Z,10.80
2023-03-24T17:08:53.540Z,10.70
2023-03-24T17:11:28.593Z,10.70
2023-03-24T17:13:59.310Z,10.70
2023-03-24T17:16:26.145Z,10.60
2023-03-24T17:18:52.989Z,10.60
2023-03-24T17:21:20.366Z,10.60
2023-03-24T17:23:49.375Z,10.60
2023-03-24T17:26:16.912Z,10.60
2023-03-24T17:28:44.001Z,10.60
2023-03-24T17:31:11.074Z,10.70
2023-03-24T17:33:38.010Z,10.70
2023-03-24T17:36:05.340Z,10.70
2023-03-24T17:38:32.309Z,10.70
2023-03-24T17:41:03.987Z,10.70
2023-03-24T17:43:31.458Z,10.70
2023-03-24T17:45:59.285Z,10.70
2023-03-24T17:48:26.775Z,10.70
2023-03-24T17:50:54.081Z,10.80
2023-03-24T17:53:26.761Z,10.80
2023-03-24T17:55:56.128Z,10.80
2023-03-24T17:58:23.614Z,10.70
2023-03-24T18:00:51.064Z,10.70
2023-03-24T18:03:18.210Z,10.70
2023-03-24T18:05:45.378Z,10.60
2023-03-24T18:08:12.405Z,10.70
2023-03-24T18:10:39.756Z,10.70
2023-03-24T18:13:07.715Z,10.60
2023-03-24T18:15:34.883Z,10.70
2023-03-24T18:18:01.999Z,10.70
2023-03-24T18:20:29.186Z,10.70
2023-03-24T18:22:55.984Z,10.70
2023-03-24T18:25:22.830Z,10.70
2023-03-24T18:27:49.747Z,10.70
2023-03-24T18:30:16.970Z,10.70
2023-03-24T18:32:43.945Z,10.60
2023-03-24T18:35:16.277Z,10.60
2023-03-24T18:37:44.125Z,10.50
2023-03-24T18:40:12.107Z,10.50
2023-03-24T18:42:38.995Z,10.50
2023-03-24T18:45:08.132Z,10.50
2023-03-24T18:47:35.208Z,10.40
2023-03-24T18:50:02.116Z,10.40
2023-03-24T18:52:29.038Z,10.40
2023-03-24T18:54:56.000Z,10.40
2023-03-24T18:57:22.820Z,10.40
2023-03-24T18:59:49.681Z,10.40
2023-03-24T19:02:16.603Z,10.40
2023-03-24T19:04:43.760Z,10.50
2023-03-24T19:07:14.411Z,10.50
2023-03-24T19:09:42.544Z,10.50
2023-03-24T19:12:09.573Z,10.50
2023-03-24T19:14:36.681Z,10.40
2023-03-24T19:17:03.565Z,10.40
2023-03-24T19:19:31.691Z,10.40
2023-03-24T19:21:59.401Z,10.30
2023-03-24T19:24:26.760Z,10.30
2023-03-24T19:26:54.530Z,10.40
2023-03-24T19:29:21.691Z,10.40
2023-03-24T19:31:49.657Z,10.40
2023-03-24T19:34:17.803Z,10.40
2023-03-24T19:36:46.486Z,10.40
2023-03-24T19:39:15.336Z,10.40
2023-03-24T19:41:42.170Z,10.40
2023-03-24T19:44:09.073Z,10.50
2023-03-24T19:46:36.003Z,10.40
2023-03-24T19:49:03.155Z,10.50
2023-03-24T19:51:30.352Z,10.50
2023-03-24T19:53:57.192Z,10.50
2023-03-24T19:56:23.974Z,10.40
2023-03-24T19:58:51.848Z,10.40
2023-03-24T20:01:20.100Z,10.40
2023-03-24T20:03:47.186Z,10.40
2023-03-24T20:06:14.062Z,10.40
2023-03-24T20:08:40.905Z,10.40
2023-03-24T20:11:12.398Z,10.30
2023-03-24T20:13:39.441Z,10.30
2023-03-24T20:16:06.630Z,10.30
2023-03-24T20:18:34.308Z,10.20
2023-03-24T20:21:01.635Z,10.20
2023-03-24T20:23:28.716Z,10.10
2023-03-24T20:25:59.843Z,10.10
2023-03-24T20:28:28.326Z,10.10
2023-03-24T20:31:00.305Z,10.00
2023-03-24T20:33:28.786Z,10.00
2023-03-24T20:35:57.187Z,10.00
2023-03-24T20:38:25.001Z,10.00
2023-03-24T20:41:02.858Z,10.00
2023-03-24T20:43:30.390Z,10.00
2023-03-24T20:45:57.785Z,9.90
2023-03-24T20:48:25.346Z,9.90
2023-03-24T20:50:52.758Z,9.90
2023-03-24T20:53:19.957Z,9.80
2023-03-24T20:56:00.987Z,9.80
2023-03-24T20:58:28.897Z,9.70
2023-03-24T21:00:56.087Z,9.70
2023-03-24T21:03:24.177Z,9.60
2023-03-24T21:05:51.556Z,9.60
2023-03-24T21:08:18.594Z,9.60
2023-03-24T21:10:45.514Z,9.60
2023-03-24T21:13:12.356Z,9.60
2023-03-24T21:15:43.540Z,9.60
2023-03-24T21:18:10.405Z,9.70
2023-03-24T21:20:38.703Z,9.60
2023-03-24T21:23:09.517Z,9.60
2023-03-24T21:25:37.557Z,9.60
2023-03-24T21:28:04.921Z,9.60
2023-03-24T21:30:31.843Z,9.60
2023-03-24T21:32:59.999Z,9.50
2023-03-24T21:35:26.980Z,9.50
2023-03-24T21:37:54.516Z,9.60
2023-03-24T21:40:25.012Z,9.50
2023-03-24T21:42:53.760Z,9.50
2023-03-24T21:45:23.153Z,9.40
2023-03-24T21:47:50.454Z,9.40
2023-03-24T21:50:22.855Z,9.40
2023-03-24T21:52:51.389Z,9.40
2023-03-24T21:55:20.497Z,9.40
2023-03-24T21:57:49.403Z,9.30
2023-03-24T22:00:22.661Z,9.30
2023-03-24T22:02:52.050Z,9.30
2023-03-24T22:05:22.069Z,9.30
2023-03-24T22:07:50.262Z,9.30
2023-03-24T22:10:29.760Z,9.30
2023-03-24T22:12:57.139Z,9.30
2023-03-24T22:15:23.993Z,9.30
2023-03-24T22:17:51.176Z,9.30
2023-03-24T22:20:18.338Z,9.30
2023-03-24T22:22:45.511Z,9.20
2023-03-24T22:25:14.416Z,9.20
2023-03-24T22:27:41.444Z,9.20
2023-03-24T22:30:10.802Z,9.20
2023-03-24T22:32:37.968Z,9.20
2023-03-24T22:35:05.659Z,9.20
2023-03-24T22:37:33.027Z,9.20
2023-03-24T22:39:59.945Z,9.20
2023-03-24T22:42:26.777Z,9.10
2023-03-24T22:44:53.574Z,9.10
2023-03-24T22:47:20.432Z,9.10
2023-03-24T22:49:47.995Z,9.10
2023-03-24T22:52:14.810Z,9.00
2023-03-24T22:54:41.630Z,9.00
2023-03-24T22:57:08.464Z,8.90
2023-03-24T22:59:35.720Z,8.90
2023-03-24T23:02:09.863Z,8.80
2023-03-24T23:04:40.576Z,8.80
2023-03-24T23:07:07.779Z,8.70
2023-03-24T23:09:34.655Z,8.70
2023-03-24T23:12:01.544Z,8.70
2023-03-24T23:14:28.400Z,8.80
2023-03-24T23:16:56.334Z,8.80
2023-03-24T23:19:23.370Z,8.80
2023-03-24T23:21:50.412Z,8.70
2023-03-24T23:24:17.391Z,8.70
2023-03-24T23:26:44.266Z,8.80
2023-03-24T23:29:11.066Z,8.70
2023-03-24T23:31:38.000Z,8.70
2023-03-24T23:34:07.514Z,8.70
2023-03-24T23:36:34.414Z,8.70
2023-03-24T23:39:01.246Z,8.60
2023-03-24T23:41:28.066Z,8.60
2023-03-24T23:43:55.282Z,8.50
2023-03-24T23:46:23.997Z,8.50
2023-03-24T23:48:50.921Z,8.50
2023-03-24T23:51:17.765Z,8.50
2023-03-24T23:53:44.550Z,8.50
2023-03-24T23:56:14.185Z,8.40
2023-03-24T23:58:42.685Z,8.30
